Time;durP1;ratioP1;P1;durP2;ratioP2;P2;SDS_P1;SDS_P2;PMS_P1;PMS_P2;Temp;Humidity;BMP_temperature;BMP_pressure;BME280_temperature;BME280_humidity;BME280_pressure;Samples;Min_cycle;Max_cycle;Signal;HPM_P1;HPM_P2
2022/03/07 00:01:31;;;;;;;;;64.00;49.00;;;;;;;;5035209;28;45416;-77
2022/03/07 00:03:56;;;;;;;;;59.00;48.00;;;;;;;;5035309;28;47241;-77
2022/03/07 00:06:22;;;;;;;;;56.75;44.00;;;;;;;;5019216;28;45401;-77
2022/03/07 00:08:48;;;;;;;;;52.25;43.25;;;;;;;;5022724;28;45493;-76
2022/03/07 00:11:14;;;;;;;;;59.25;47.00;;;;;;;;5031631;28;45438;-76
2022/03/07 00:13:39;;;;;;;;;60.25;48.00;;;;;;;;5034808;28;49394;-77
2022/03/07 00:16:05;;;;;;;;;58.75;45.00;;;;;;;;5035152;28;45448;-77
2022/03/07 00:18:30;;;;;;;;;52.75;42.00;;;;;;;;5034932;28;45313;-77
2022/03/07 00:20:55;;;;;;;;;58.25;48.00;;;;;;;;5035501;28;45454;-76
2022/03/07 00:23:21;;;;;;;;;63.75;47.50;;;;;;;;5034545;28;45580;-75
2022/03/07 00:25:46;;;;;;;;;56.50;46.00;;;;;;;;5034655;28;45448;-76
2022/03/07 00:28:11;;;;;;;;;48.50;40.75;;;;;;;;5035089;28;45424;-76
2022/03/07 00:30:37;;;;;;;;;58.75;45.25;;;;;;;;5034958;28;45293;-76
2022/03/07 00:33:02;;;;;;;;;56.00;46.25;;;;;;;;5035348;28;47395;-76
2022/03/07 00:35:27;;;;;;;;;53.75;42.00;;;;;;;;5034594;28;45838;-75
2022/03/07 00:37:53;;;;;;;;;62.25;50.00;;;;;;;;5033940;28;45337;-75
2022/03/07 00:40:18;;;;;;;;;53.50;42.75;;;;;;;;5034623;28;45502;-75
2022/03/07 00:42:43;;;;;;;;;53.50;44.25;;;;;;;;5034984;28;46262;-75
2022/03/07 00:45:10;;;;;;;;;58.50;45.50;;;;;;;;5020076;28;45651;-76
2022/03/07 00:47:35;;;;;;;;;61.75;43.00;;;;;;;;5033690;28;45472;-77
2022/03/07 00:50:01;;;;;;;;;63.33;47.67;;;;;;;;5034407;28;45416;-75
2022/03/07 00:52:26;;;;;;;;;57.00;43.25;;;;;;;;5033763;28;47269;-76
2022/03/07 00:54:51;;;;;;;;;55.75;45.50;;;;;;;;5034651;28;45466;-74
2022/03/07 00:57:16;;;;;;;;;53.50;42.00;;;;;;;;5035024;28;45505;-76
2022/03/07 00:59:42;;;;;;;;;56.00;43.75;;;;;;;;5034661;28;45512;-74
2022/03/07 01:02:07;;;;;;;;;55.25;44.25;;;;;;;;5034313;28;45451;-75
2022/03/07 01:04:32;;;;;;;;;58.25;44.25;;;;;;;;5034452;28;45323;-75
2022/03/07 01:06:57;;;;;;;;;52.75;44.25;;;;;;;;5034503;28;45340;-75
2022/03/07 01:09:22;;;;;;;;;56.25;44.50;;;;;;;;5034571;28;45505;-76
2022/03/07 01:11:48;;;;;;;;;54.00;41.25;;;;;;;;5034981;28;45458;-75
2022/03/07 01:14:13;;;;;;;;;51.25;41.50;;;;;;;;5034365;28;45422;-76
2022/03/07 01:16:38;;;;;;;;;57.50;45.50;;;;;;;;5034377;28;45472;-76
2022/03/07 01:19:04;;;;;;;;;57.50;45.25;;;;;;;;5034382;28;45420;-76
2022/03/07 01:21:29;;;;;;;;;54.50;41.75;;;;;;;;5033893;28;45541;-76
2022/03/07 01:23:54;;;;;;;;;51.50;40.50;;;;;;;;5021743;28;45450;-75
2022/03/07 01:26:20;;;;;;;;;56.75;45.00;;;;;;;;5022596;28;45381;-76
2022/03/07 01:28:45;;;;;;;;;53.00;44.25;;;;;;;;5042347;28;45439;-74
2022/03/07 01:31:10;;;;;;;;;52.00;41.00;;;;;;;;5035065;28;46046;-76
2022/03/07 01:33:35;;;;;;;;;59.50;43.00;;;;;;;;5033940;28;45360;-74
2022/03/07 01:36:01;;;;;;;;;55.50;45.00;;;;;;;;5034335;28;45310;-77
2022/03/07 01:38:26;;;;;;;;;49.75;41.75;;;;;;;;5015924;28;45412;-76
2022/03/07 01:40:51;;;;;;;;;49.50;41.75;;;;;;;;5033812;28;45343;-77
2022/03/07 01:43:16;;;;;;;;;54.50;44.25;;;;;;;;5016313;28;45479;-75
2022/03/07 01:45:42;;;;;;;;;46.75;40.00;;;;;;;;5034145;28;45362;-75
2022/03/07 01:48:07;;;;;;;;;54.25;41.00;;;;;;;;5034411;28;45280;-75
2022/03/07 01:50:32;;;;;;;;;48.50;41.75;;;;;;;;5033899;28;46069;-75
2022/03/07 01:52:58;;;;;;;;;51.25;41.25;;;;;;;;5036849;28;45429;-75
2022/03/07 01:55:23;;;;;;;;;57.50;41.75;;;;;;;;5037312;28;45315;-76
2022/03/07 01:57:49;;;;;;;;;54.75;43.00;;;;;;;;5037323;28;45454;-75
2022/03/07 02:00:24;;;;;;;;;49.50;38.00;;;;;;;;5037680;28;46455;-76
2022/03/07 02:02:50;;;;;;;;;52.00;42.00;;;;;;;;5023683;28;45490;-76
2022/03/07 02:05:16;;;;;;;;;53.75;40.00;;;;;;;;5033410;28;45469;-75
2022/03/07 02:07:41;;;;;;;;;53.75;41.25;;;;;;;;5037234;28;45526;-75
2022/03/07 02:10:07;;;;;;;;;52.25;41.00;;;;;;;;5037077;28;45367;-75
2022/03/07 02:12:32;;;;;;;;;47.75;38.75;;;;;;;;5037309;28;45605;-75
2022/03/07 02:14:57;;;;;;;;;49.50;41.75;;;;;;;;5037719;28;45377;-75
2022/03/07 02:17:23;;;;;;;;;53.00;42.00;;;;;;;;5037025;28;45607;-75
2022/03/07 02:19:48;;;;;;;;;51.25;41.25;;;;;;;;5036308;28;47000;-76
2022/03/07 02:22:15;;;;;;;;;50.50;42.00;;;;;;;;5036700;28;45292;-75
2022/03/07 02:24:40;;;;;;;;;48.50;41.00;;;;;;;;5036891;28;45327;-75
2022/03/07 02:27:06;;;;;;;;;55.00;43.00;;;;;;;;5037544;28;45270;-75
2022/03/07 02:29:32;;;;;;;;;49.25;39.00;;;;;;;;5036239;28;45550;-74
2022/03/07 02:31:57;;;;;;;;;50.25;39.50;;;;;;;;5036689;28;45507;-75
2022/03/07 02:34:22;;;;;;;;;48.50;41.50;;;;;;;;5036584;28;45400;-75
2022/03/07 02:36:48;;;;;;;;;48.50;40.75;;;;;;;;5037064;28;45304;-74
2022/03/07 02:39:13;;;;;;;;;50.50;41.75;;;;;;;;5037319;28;46225;-74
2022/03/07 02:41:39;;;;;;;;;49.00;40.75;;;;;;;;5025675;28;45461;-75
2022/03/07 02:44:04;;;;;;;;;52.50;39.50;;;;;;;;5032004;28;45264;-76
2022/03/07 02:46:30;;;;;;;;;47.50;40.25;;;;;;;;5036744;28;45366;-75
2022/03/07 02:48:55;;;;;;;;;49.75;42.00;;;;;;;;5036323;28;47562;-76
2022/03/07 02:51:20;;;;;;;;;55.75;39.50;;;;;;;;5036815;28;45463;-76
2022/03/07 02:53:45;;;;;;;;;53.25;43.00;;;;;;;;5036961;28;45346;-76
2022/03/07 02:56:11;;;;;;;;;49.25;40.00;;;;;;;;5036521;28;45433;-76
2022/03/07 02:58:36;;;;;;;;;51.75;41.75;;;;;;;;5037462;28;46153;-76
2022/03/07 03:01:02;;;;;;;;;47.75;37.50;;;;;;;;5036136;28;45493;-76
2022/03/07 03:03:28;;;;;;;;;45.50;38.25;;;;;;;;5036564;28;45424;-77
2022/03/07 03:05:54;;;;;;;;;42.25;36.00;;;;;;;;5036846;28;45491;-76
2022/03/07 03:08:20;;;;;;;;;54.50;43.50;;;;;;;;5035926;28;46569;-76
2022/03/07 03:10:46;;;;;;;;;44.25;36.00;;;;;;;;5035994;28;45415;-76
2022/03/07 03:13:11;;;;;;;;;56.00;39.50;;;;;;;;5036353;28;45313;-76
2022/03/07 03:15:36;;;;;;;;;49.75;41.00;;;;;;;;5036084;28;45468;-76
2022/03/07 03:18:01;;;;;;;;;44.00;38.00;;;;;;;;5036104;28;46298;-76
2022/03/07 03:20:27;;;;;;;;;56.00;43.00;;;;;;;;5026228;28;45336;-76
2022/03/07 03:22:52;;;;;;;;;51.75;39.25;;;;;;;;5029438;28;45360;-75
2022/03/07 03:25:17;;;;;;;;;47.50;40.25;;;;;;;;5036137;28;45755;-75
2022/03/07 03:27:42;;;;;;;;;49.00;40.00;;;;;;;;5020239;28;46109;-75
2022/03/07 03:30:09;;;;;;;;;47.50;38.25;;;;;;;;5036282;28;45547;-76
2022/03/07 03:32:34;;;;;;;;;48.75;42.00;;;;;;;;5035264;28;45493;-74
2022/03/07 03:34:59;;;;;;;;;49.25;41.50;;;;;;;;5035919;28;45456;-76
2022/03/07 03:37:24;;;;;;;;;44.25;38.50;;;;;;;;5035713;28;46414;-77
2022/03/07 03:39:49;;;;;;;;;50.50;39.00;;;;;;;;5035793;28;45480;-76
2022/03/07 03:42:15;;;;;;;;;45.50;37.75;;;;;;;;5035930;28;45459;-77
2022/03/07 03:44:40;;;;;;;;;51.50;41.75;;;;;;;;5035845;28;45501;-76
2022/03/07 03:47:05;;;;;;;;;49.75;41.50;;;;;;;;5034859;28;47086;-76
2022/03/07 03:49:30;;;;;;;;;41.75;36.75;;;;;;;;5035384;28;45566;-76
2022/03/07 03:51:56;;;;;;;;;47.25;36.25;;;;;;;;5035095;28;45375;-76
2022/03/07 03:54:22;;;;;;;;;50.25;40.50;;;;;;;;5035800;28;45369;-76
2022/03/07 03:56:48;;;;;;;;;52.00;40.75;;;;;;;;5036013;28;46104;-74
2022/03/07 03:59:13;;;;;;;;;45.25;39.00;;;;;;;;5027201;28;45462;-74
2022/03/07 04:01:38;;;;;;;;;57.25;45.25;;;;;;;;5026765;28;45284;-76
2022/03/07 04:04:03;;;;;;;;;48.00;39.25;;;;;;;;5035553;28;45334;-76
2022/03/07 04:06:28;;;;;;;;;50.00;41.33;;;;;;;;5035532;28;45570;-77
2022/03/07 04:08:54;;;;;;;;;53.50;44.75;;;;;;;;5034803;28;45375;-77
2022/03/07 04:11:21;;;;;;;;;49.25;40.00;;;;;;;;5035156;28;45458;-76
2022/03/07 04:13:46;;;;;;;;;50.50;42.25;;;;;;;;5034126;28;45411;-76
2022/03/07 04:16:11;;;;;;;;;56.75;41.75;;;;;;;;5034255;28;46089;-76
2022/03/07 04:18:37;;;;;;;;;48.67;41.00;;;;;;;;5034517;28;45288;-76
2022/03/07 04:21:02;;;;;;;;;47.25;39.50;;;;;;;;5035271;28;45379;-76
2022/03/07 04:23:27;;;;;;;;;48.50;40.00;;;;;;;;5034912;28;45329;-77
2022/03/07 04:25:52;;;;;;;;;49.75;41.00;;;;;;;;5034574;28;46437;-75
2022/03/07 04:28:18;;;;;;;;;40.75;38.50;;;;;;;;5034752;28;45514;-76
2022/03/07 04:30:43;;;;;;;;;52.00;40.50;;;;;;;;5034862;28;45564;-76
2022/03/07 04:33:09;;;;;;;;;50.00;40.50;;;;;;;;5035488;28;45508;-75
2022/03/07 04:35:34;;;;;;;;;47.50;39.75;;;;;;;;5034659;28;46437;-75
2022/03/07 04:38:01;;;;;;;;;48.50;39.25;;;;;;;;5028585;28;45289;-75
2022/03/07 04:40:26;;;;;;;;;42.50;39.00;;;;;;;;5024685;28;45506;-77
2022/03/07 04:42:52;;;;;;;;;48.00;39.25;;;;;;;;5034662;28;45585;-77
2022/03/07 04:45:18;;;;;;;;;53.25;40.75;;;;;;;;5016419;28;47146;-77
2022/03/07 04:47:43;;;;;;;;;44.75;37.75;;;;;;;;5034828;28;45463;-75
2022/03/07 04:50:09;;;;;;;;;48.00;39.25;;;;;;;;5034353;28;45496;-74
2022/03/07 04:52:35;;;;;;;;;48.75;40.25;;;;;;;;5034262;28;45321;-76
2022/03/07 04:55:00;;;;;;;;;44.00;37.75;;;;;;;;5034366;28;46256;-75
2022/03/07 04:57:25;;;;;;;;;47.75;39.75;;;;;;;;5034485;28;45386;-76
2022/03/07 04:59:50;;;;;;;;;55.00;44.33;;;;;;;;5034547;28;45300;-76
2022/03/07 05:02:16;;;;;;;;;48.00;40.25;;;;;;;;5034429;28;45563;-77
2022/03/07 05:04:41;;;;;;;;;54.25;41.75;;;;;;;;5033815;28;46351;-76
2022/03/07 05:07:06;;;;;;;;;53.67;44.33;;;;;;;;5034131;28;45624;-75
2022/03/07 05:09:32;;;;;;;;;42.67;36.33;;;;;;;;5034226;28;45368;-76
2022/03/07 05:11:57;;;;;;;;;46.00;39.33;;;;;;;;5034593;28;45413;-75
2022/03/07 05:14:22;;;;;;;;;59.00;44.00;;;;;;;;5033316;28;46227;-75
2022/03/07 05:16:48;;;;;;;;;47.67;41.33;;;;;;;;5029132;28;45421;-75
2022/03/07 05:19:13;;;;;;;;;50.00;41.00;;;;;;;;5021891;28;45485;-77
2022/03/07 05:21:38;;;;;;;;;56.33;41.33;;;;;;;;5033797;28;45354;-76
2022/03/07 05:24:04;;;;;;;;;53.33;45.00;;;;;;;;5034548;28;45885;-78
2022/03/07 05:26:29;;;;;;;;;43.33;36.67;;;;;;;;5037494;28;45351;-77
2022/03/07 05:28:54;;;;;;;;;52.67;42.00;;;;;;;;5036762;28;45363;-76
2022/03/07 05:31:20;;;;;;;;;52.67;41.33;;;;;;;;5036884;28;45361;-74
2022/03/07 05:33:45;;;;;;;;;50.33;41.33;;;;;;;;5037086;28;46178;-75
2022/03/07 05:36:10;;;;;;;;;51.67;41.67;;;;;;;;5038059;28;45442;-76
2022/03/07 05:38:35;;;;;;;;;54.67;41.67;;;;;;;;5037636;28;45426;-75
2022/03/07 05:41:01;;;;;;;;;49.67;42.67;;;;;;;;5031318;28;45506;-76
2022/03/07 05:43:26;;;;;;;;;46.67;39.33;;;;;;;;5009236;28;46505;-75
2022/03/07 05:45:51;;;;;;;;;49.33;41.00;;;;;;;;5037016;28;45668;-77
2022/03/07 05:48:16;;;;;;;;;39.00;34.00;;;;;;;;5037760;28;45437;-76
2022/03/07 05:50:41;;;;;;;;;52.00;40.00;;;;;;;;5037425;28;45337;-77
2022/03/07 05:53:07;;;;;;;;;54.00;42.33;;;;;;;;5036743;28;45487;-76
2022/03/07 05:55:32;;;;;;;;;68.67;50.67;;;;;;;;5034886;28;45249;-76
2022/03/07 05:58:00;;;;;;;;;62.00;47.00;;;;;;;;5004749;28;45597;-76
2022/03/07 06:00:26;;;;;;;;;47.67;38.67;;;;;;;;5020868;28;45400;-77
2022/03/07 06:02:51;;;;;;;;;50.33;41.00;;;;;;;;5037148;28;45433;-75
2022/03/07 06:05:16;;;;;;;;;55.67;44.00;;;;;;;;5036554;28;45414;-76
2022/03/07 06:07:41;;;;;;;;;58.00;41.33;;;;;;;;5036299;28;45422;-76
2022/03/07 06:10:06;;;;;;;;;49.00;41.67;;;;;;;;5036738;28;45374;-75
2022/03/07 06:12:32;;;;;;;;;44.67;41.67;;;;;;;;5019613;28;46222;-76
2022/03/07 06:14:57;;;;;;;;;55.67;43.67;;;;;;;;5036743;28;45529;-77
2022/03/07 06:17:22;;;;;;;;;51.00;40.67;;;;;;;;5036036;28;45296;-77
2022/03/07 06:19:48;;;;;;;;;55.33;42.33;;;;;;;;5035472;28;45453;-75
2022/03/07 06:22:13;;;;;;;;;50.33;42.00;;;;;;;;5036001;28;45346;-77
2022/03/07 06:24:38;;;;;;;;;60.67;47.33;;;;;;;;5036544;28;45371;-75
2022/03/07 06:27:03;;;;;;;;;55.00;44.67;;;;;;;;5036023;28;45430;-76
2022/03/07 06:29:29;;;;;;;;;42.00;37.00;;;;;;;;5035568;28;45658;-78
2022/03/07 06:31:54;;;;;;;;;54.33;42.67;;;;;;;;5031129;28;46187;-78
2022/03/07 06:34:19;;;;;;;;;42.67;33.33;;;;;;;;5024727;28;45344;-77
2022/03/07 06:36:45;;;;;;;;;57.33;43.67;;;;;;;;5018977;28;45386;-77
2022/03/07 06:39:10;;;;;;;;;50.00;42.25;;;;;;;;5035946;28;45406;-77
2022/03/07 06:41:35;;;;;;;;;42.67;37.33;;;;;;;;5034329;28;45445;-79
2022/03/07 06:44:00;;;;;;;;;60.67;48.00;;;;;;;;5034972;28;45439;-78
2022/03/07 06:46:26;;;;;;;;;48.67;37.33;;;;;;;;5034939;28;45394;-78
2022/03/07 06:48:51;;;;;;;;;54.33;45.00;;;;;;;;5034663;28;45452;-78
2022/03/07 06:51:18;;;;;;;;;50.33;42.00;;;;;;;;5035020;28;45311;-77
2022/03/07 06:53:43;;;;;;;;;51.00;40.67;;;;;;;;5035023;28;45386;-79
2022/03/07 06:56:09;;;;;;;;;50.00;41.67;;;;;;;;5034333;28;45433;-76
2022/03/07 06:58:34;;;;;;;;;64.00;47.33;;;;;;;;5033941;28;45502;-76
2022/03/07 07:00:59;;;;;;;;;55.33;44.00;;;;;;;;5034484;28;46028;-76
2022/03/07 07:03:24;;;;;;;;;57.67;43.67;;;;;;;;5035446;28;45501;-75
2022/03/07 07:05:49;;;;;;;;;54.67;44.67;;;;;;;;5034859;28;45391;-75
2022/03/07 07:08:15;;;;;;;;;56.00;43.67;;;;;;;;5034009;28;45523;-77
2022/03/07 07:10:40;;;;;;;;;52.00;42.00;;;;;;;;5033708;28;46063;-76
2022/03/07 07:13:05;;;;;;;;;51.67;39.67;;;;;;;;5034077;28;45434;-78
2022/03/07 07:15:31;;;;;;;;;58.00;45.67;;;;;;;;5018145;28;45649;-77
2022/03/07 07:17:56;;;;;;;;;59.00;46.67;;;;;;;;5035083;28;45513;-77
2022/03/07 07:20:21;;;;;;;;;46.50;39.50;;;;;;;;5033823;28;46470;-76
2022/03/07 07:22:46;;;;;;;;;55.33;43.00;;;;;;;;5033904;28;45345;-77
2022/03/07 07:25:12;;;;;;;;;44.33;41.00;;;;;;;;5035073;28;45522;-78
2022/03/07 07:27:38;;;;;;;;;55.67;43.00;;;;;;;;5036135;28;45301;-76
2022/03/07 07:30:07;;;;;;;;;48.75;40.00;;;;;;;;5021495;28;46393;-80
2022/03/07 07:32:32;;;;;;;;;51.33;41.33;;;;;;;;5024344;28;45427;-77
2022/03/07 07:34:58;;;;;;;;;59.67;44.33;;;;;;;;5029488;28;45299;-76
2022/03/07 07:37:23;;;;;;;;;58.33;45.33;;;;;;;;5017938;28;45617;-77
2022/03/07 07:39:49;;;;;;;;;51.25;39.00;;;;;;;;5033946;28;46054;-77
2022/03/07 07:42:14;;;;;;;;;54.33;41.00;;;;;;;;5034549;28;45388;-75
2022/03/07 07:44:39;;;;;;;;;53.75;41.25;;;;;;;;5023127;28;45256;-76
2022/03/07 07:47:05;;;;;;;;;47.00;40.00;;;;;;;;5029196;28;45249;-76
2022/03/07 07:49:31;;;;;;;;;52.25;42.50;;;;;;;;5033980;28;46230;-77
2022/03/07 07:51:56;;;;;;;;;46.25;37.75;;;;;;;;5034687;28;45392;-76
2022/03/07 07:54:22;;;;;;;;;53.00;40.00;;;;;;;;5034688;28;45280;-76
2022/03/07 07:56:47;;;;;;;;;50.25;40.00;;;;;;;;5034689;28;45420;-76
2022/03/07 07:59:12;;;;;;;;;62.50;48.00;;;;;;;;5034639;28;45323;-79
2022/03/07 08:01:37;;;;;;;;;57.33;44.67;;;;;;;;5031777;28;45295;-79
2022/03/07 08:04:03;;;;;;;;;59.00;48.00;;;;;;;;5022041;28;45224;-79
2022/03/07 08:06:28;;;;;;;;;57.25;45.25;;;;;;;;5035105;28;45504;-80
2022/03/07 08:08:53;;;;;;;;;52.25;42.75;;;;;;;;5034183;28;46124;-78
2022/03/07 08:11:18;;;;;;;;;57.75;45.25;;;;;;;;5032843;28;45412;-78
2022/03/07 08:13:44;;;;;;;;;48.75;41.25;;;;;;;;5017080;28;45492;-76
2022/03/07 08:16:09;;;;;;;;;50.50;41.75;;;;;;;;5033902;28;45498;-76
2022/03/07 08:18:34;;;;;;;;;49.25;38.75;;;;;;;;5033309;28;46338;-76
2022/03/07 08:21:02;;;;;;;;;55.75;43.25;;;;;;;;5033665;28;45577;-75
2022/03/07 08:23:28;;;;;;;;;56.00;41.75;;;;;;;;5033776;28;45437;-77
2022/03/07 08:25:53;;;;;;;;;55.50;44.00;;;;;;;;5033813;28;45419;-78
2022/03/07 08:28:18;;;;;;;;;51.00;41.25;;;;;;;;5033525;28;47301;-77
2022/03/07 08:30:43;;;;;;;;;50.75;39.00;;;;;;;;5033091;28;45448;-78
2022/03/07 08:33:09;;;;;;;;;54.25;40.25;;;;;;;;5018190;28;45406;-76
2022/03/07 08:35:34;;;;;;;;;54.00;43.75;;;;;;;;5032255;28;45495;-77
2022/03/07 08:37:59;;;;;;;;;46.00;38.00;;;;;;;;5032944;28;46183;-78
2022/03/07 08:40:25;;;;;;;;;53.50;42.50;;;;;;;;5032513;28;45410;-78
2022/03/07 08:42:50;;;;;;;;;48.00;37.25;;;;;;;;5033141;28;45324;-78
2022/03/07 08:45:16;;;;;;;;;46.75;38.25;;;;;;;;5033240;28;45278;-77
2022/03/07 08:47:41;;;;;;;;;52.75;39.50;;;;;;;;5021285;28;45619;-78
2022/03/07 08:50:10;;;;;;;;;47.50;38.75;;;;;;;;5020170;28;45481;-78
2022/03/07 08:52:36;;;;;;;;;52.50;40.00;;;;;;;;5023426;28;45259;-78
2022/03/07 08:55:02;;;;;;;;;48.75;39.50;;;;;;;;5033262;28;45481;-77
2022/03/07 08:57:27;;;;;;;;;48.50;40.50;;;;;;;;5017229;28;47528;-77
2022/03/07 08:59:53;;;;;;;;;52.25;41.50;;;;;;;;5033261;28;45447;-77
2022/03/07 09:02:18;;;;;;;;;51.25;41.50;;;;;;;;5033055;28;45373;-78
2022/03/07 09:04:43;;;;;;;;;42.50;35.00;;;;;;;;5032493;28;45144;-76
2022/03/07 09:07:08;;;;;;;;;49.25;38.50;;;;;;;;5032440;28;46747;-78
2022/03/07 09:09:34;;;;;;;;;43.75;37.25;;;;;;;;5012205;28;45679;-78
2022/03/07 09:12:00;;;;;;;;;54.00;42.50;;;;;;;;5019051;28;45386;-78
2022/03/07 09:14:26;;;;;;;;;46.75;37.75;;;;;;;;5030679;28;45423;-78
2022/03/07 09:16:51;;;;;;;;;41.25;35.00;;;;;;;;5032198;28;46651;-78
2022/03/07 09:19:17;;;;;;;;;50.50;39.75;;;;;;;;5031719;28;45571;-78
2022/03/07 09:21:42;;;;;;;;;49.00;37.75;;;;;;;;5032577;28;45571;-78
2022/03/07 09:24:07;;;;;;;;;36.00;30.75;;;;;;;;5033143;28;45310;-77
2022/03/07 09:26:33;;;;;;;;;42.25;36.00;;;;;;;;5033100;28;46152;-77
2022/03/07 09:28:58;;;;;;;;;41.50;36.50;;;;;;;;5032915;28;45430;-78
2022/03/07 09:31:23;;;;;;;;;47.75;38.00;;;;;;;;5033215;28;45422;-77
2022/03/07 09:33:49;;;;;;;;;50.00;39.00;;;;;;;;5032604;28;45344;-77
2022/03/07 09:36:14;;;;;;;;;42.25;37.00;;;;;;;;5033704;28;46459;-78
2022/03/07 09:38:39;;;;;;;;;53.50;40.75;;;;;;;;5032559;28;45394;-77
2022/03/07 09:41:05;;;;;;;;;46.50;38.00;;;;;;;;5033034;28;45270;-76
2022/03/07 09:43:30;;;;;;;;;54.25;42.25;;;;;;;;5032540;28;45396;-77
2022/03/07 09:45:55;;;;;;;;;52.25;42.25;;;;;;;;5032367;28;46909;-78
2022/03/07 09:48:21;;;;;;;;;52.25;41.25;;;;;;;;5016274;28;45293;-78
2022/03/07 09:50:47;;;;;;;;;54.00;43.25;;;;;;;;5020309;28;45656;-77
2022/03/07 09:53:13;;;;;;;;;41.00;33.50;;;;;;;;5028738;28;45451;-77
2022/03/07 09:55:38;;;;;;;;;45.50;37.25;;;;;;;;5031719;28;46132;-77
2022/03/07 09:58:05;;;;;;;;;46.00;39.00;;;;;;;;5032047;28;45394;-78
2022/03/07 10:00:31;;;;;;;;;46.75;38.00;;;;;;;;5032252;28;45550;-78
2022/03/07 10:02:57;;;;;;;;;45.25;35.00;;;;;;;;5031964;28;45312;-78
2022/03/07 10:05:26;;;;;;;;;46.00;36.25;;;;;;;;5031445;28;46846;-77
2022/03/07 10:07:51;;;;;;;;;46.25;37.00;;;;;;;;5031690;28;45488;-77
2022/03/07 10:10:17;;;;;;;;;45.25;38.00;;;;;;;;5032100;28;45284;-75
2022/03/07 10:12:46;;;;;;;;;45.00;35.25;;;;;;;;5034148;28;45510;-78
2022/03/07 10:15:15;;;;;;;;;46.75;40.00;;;;;;;;5035671;28;46107;-78
2022/03/07 10:17:45;;;;;;;;;41.25;35.75;;;;;;;;5035245;28;45481;-75
2022/03/07 10:20:11;;;;;;;;;49.75;41.00;;;;;;;;5035175;28;45309;-78
2022/03/07 10:22:43;;;;;;;;;50.75;39.75;;;;;;;;5017165;28;45312;-77
2022/03/07 10:25:09;;;;;;;;;46.75;34.50;;;;;;;;5035837;28;46138;-78
2022/03/07 10:27:37;;;;;;;;;45.75;38.25;;;;;;;;5035119;28;45449;-77
2022/03/07 10:30:03;;;;;;;;;41.50;36.00;;;;;;;;5020979;28;45444;-78
2022/03/07 10:32:28;;;;;;;;;40.00;34.75;;;;;;;;5033013;28;45421;-78
2022/03/07 10:34:53;;;;;;;;;33.00;29.50;;;;;;;;5034601;28;46050;-78
2022/03/07 10:37:30;;;;;;;;;44.75;38.25;;;;;;;;5034145;28;45337;-77
2022/03/07 10:39:55;;;;;;;;;46.25;38.00;;;;;;;;5036108;28;45237;-77
2022/03/07 10:42:20;;;;;;;;;34.25;28.50;;;;;;;;5020091;28;45428;-78
2022/03/07 10:44:47;;;;;;;;;40.00;35.00;;;;;;;;5037294;28;45513;-75
2022/03/07 10:47:14;;;;;;;;;40.00;34.25;;;;;;;;5009974;28;45400;-78
2022/03/07 10:49:53;;;;;;;;;37.00;33.75;;;;;;;;5027814;28;45295;-77
2022/03/07 10:52:19;;;;;;;;;35.25;32.25;;;;;;;;5033912;28;45593;-75
2022/03/07 10:54:47;;;;;;;;;36.50;32.25;;;;;;;;5019498;28;47348;-76
2022/03/07 10:57:12;;;;;;;;;52.00;42.50;;;;;;;;5031883;28;45548;-77
2022/03/07 10:59:38;;;;;;;;;39.25;35.75;;;;;;;;5036129;28;45566;-77
2022/03/07 11:02:09;;;;;;;;;36.00;30.25;;;;;;;;5029689;28;45482;-77
2022/03/07 11:04:35;;;;;;;;;43.50;36.25;;;;;;;;5026796;28;46398;-77
2022/03/07 11:07:00;;;;;;;;;31.25;29.50;;;;;;;;5035730;28;45486;-77
2022/03/07 11:09:27;;;;;;;;;42.25;35.75;;;;;;;;5002070;28;45347;-76
2022/03/07 11:11:52;;;;;;;;;33.00;30.50;;;;;;;;5034768;28;45516;-76
2022/03/07 11:14:19;;;;;;;;;51.00;43.00;;;;;;;;5033560;28;46078;-78
2022/03/07 11:16:45;;;;;;;;;33.75;29.00;;;;;;;;5033774;28;45542;-77
2022/03/07 11:19:12;;;;;;;;;40.75;35.25;;;;;;;;5016542;28;45526;-78
2022/03/07 11:21:40;;;;;;;;;31.00;26.50;;;;;;;;5034487;28;45499;-78
2022/03/07 11:24:06;;;;;;;;;33.25;31.25;;;;;;;;5033900;28;46370;-78
2022/03/07 11:26:31;;;;;;;;;34.50;31.00;;;;;;;;5035351;28;45500;-78
2022/03/07 11:28:57;;;;;;;;;40.00;30.25;;;;;;;;5031537;28;45702;-78
2022/03/07 11:31:23;;;;;;;;;35.75;34.25;;;;;;;;5034495;28;45492;-77
2022/03/07 11:33:49;;;;;;;;;34.75;32.50;;;;;;;;5035440;28;47097;-78
2022/03/07 11:36:16;;;;;;;;;25.00;22.50;;;;;;;;5019897;28;45413;-78
2022/03/07 11:38:49;;;;;;;;;36.75;32.25;;;;;;;;5035610;28;45302;-79
2022/03/07 11:41:21;;;;;;;;;33.25;29.00;;;;;;;;5016973;28;45875;-79
2022/03/07 11:43:51;;;;;;;;;30.75;29.00;;;;;;;;5031416;28;45415;-78
2022/03/07 11:46:22;;;;;;;;;33.75;29.25;;;;;;;;5021490;28;45615;-78
2022/03/07 11:48:47;;;;;;;;;26.00;25.00;;;;;;;;5017393;28;45448;-76
2022/03/07 11:51:32;;;;;;;;;40.75;32.75;;;;;;;;5015028;28;45461;-78
2022/03/07 11:53:57;;;;;;;;;34.75;32.50;;;;;;;;5033645;28;46346;-81
2022/03/07 11:56:33;;;;;;;;;46.25;37.00;;;;;;;;5033126;28;45421;-79
2022/03/07 11:58:59;;;;;;;;;29.75;28.00;;;;;;;;5014921;28;45487;-78
2022/03/07 12:01:25;;;;;;;;;32.50;29.50;;;;;;;;5033498;28;45344;-77
2022/03/07 12:03:51;;;;;;;;;30.50;27.50;;;;;;;;5033722;28;46469;-77
2022/03/07 12:06:22;;;;;;;;;35.50;33.00;;;;;;;;5034550;28;45390;-73
2022/03/07 12:08:52;;;;;;;;;31.00;29.00;;;;;;;;5034428;28;45400;-77
2022/03/07 12:11:24;;;;;;;;;34.50;33.00;;;;;;;;5034346;28;45554;-75
2022/03/07 12:13:50;;;;;;;;;30.50;29.50;;;;;;;;5033954;28;45755;-75
2022/03/07 12:16:25;;;;;;;;;29.00;27.25;;;;;;;;5034139;28;45455;-76
2022/03/07 12:18:52;;;;;;;;;29.75;27.50;;;;;;;;5006980;28;45447;-79
2022/03/07 12:21:23;;;;;;;;;28.75;27.75;;;;;;;;5018562;28;45532;-76
2022/03/07 12:23:49;;;;;;;;;31.75;30.00;;;;;;;;5021734;28;47352;-78
2022/03/07 12:26:14;;;;;;;;;30.25;27.75;;;;;;;;5030692;28;45366;-79
2022/03/07 12:28:40;;;;;;;;;30.50;29.75;;;;;;;;5034247;28;45396;-77
2022/03/07 12:31:06;;;;;;;;;32.50;29.75;;;;;;;;5035573;28;45272;-79
2022/03/07 12:33:32;;;;;;;;;32.25;30.00;;;;;;;;5034474;28;46408;-80
2022/03/07 12:36:01;;;;;;;;;31.25;27.75;;;;;;;;5033876;28;45364;-80
2022/03/07 12:38:27;;;;;;;;;29.25;28.75;;;;;;;;5033097;28;45430;-79
2022/03/07 12:40:52;;;;;;;;;32.25;30.50;;;;;;;;5033083;28;45541;-81
2022/03/07 12:43:17;;;;;;;;;38.50;34.25;;;;;;;;5032857;28;46044;-81
2022/03/07 12:45:46;;;;;;;;;33.25;28.75;;;;;;;;5033345;28;45344;-80
2022/03/07 12:48:12;;;;;;;;;30.00;27.00;;;;;;;;5033751;28;45402;-79
2022/03/07 12:50:37;;;;;;;;;31.25;27.25;;;;;;;;5032659;28;45316;-79
2022/03/07 12:53:02;;;;;;;;;27.25;25.50;;;;;;;;5032317;28;45697;-80
2022/03/07 12:55:27;;;;;;;;;26.75;26.00;;;;;;;;5032912;28;45320;-79
2022/03/07 12:57:57;;;;;;;;;29.00;25.00;;;;;;;;5032310;28;45370;-80
2022/03/07 13:00:22;;;;;;;;;27.25;26.50;;;;;;;;5033264;28;45312;-79
2022/03/07 13:02:49;;;;;;;;;24.75;24.50;;;;;;;;5033389;28;45652;-80
2022/03/07 13:05:16;;;;;;;;;26.75;26.75;;;;;;;;5025172;28;45458;-80
2022/03/07 13:07:52;;;;;;;;;33.75;28.25;;;;;;;;5024763;28;45429;-80
2022/03/07 13:10:17;;;;;;;;;35.25;31.50;;;;;;;;5032846;28;45686;-80
2022/03/07 13:12:42;;;;;;;;;31.00;26.00;;;;;;;;5032612;28;46718;-79
2022/03/07 13:15:08;;;;;;;;;27.50;26.50;;;;;;;;5033427;28;45424;-79
2022/03/07 13:17:34;;;;;;;;;34.75;31.00;;;;;;;;5033268;28;45589;-80
2022/03/07 13:19:59;;;;;;;;;26.00;24.25;;;;;;;;5034583;28;45601;-78
2022/03/07 13:22:26;;;;;;;;;31.25;29.75;;;;;;;;5033857;28;45280;-79
2022/03/07 13:24:51;;;;;;;;;33.25;29.25;;;;;;;;5018857;28;45419;-79
2022/03/07 13:27:17;;;;;;;;;32.00;29.00;;;;;;;;5019012;28;45387;-78
2022/03/07 13:29:43;;;;;;;;;38.00;32.00;;;;;;;;5034990;28;45647;-79
2022/03/07 13:32:08;;;;;;;;;35.75;31.25;;;;;;;;5027308;28;45415;-78
2022/03/07 13:34:44;;;;;;;;;27.75;26.50;;;;;;;;5024549;28;45712;-79
2022/03/07 13:37:11;;;;;;;;;28.75;26.50;;;;;;;;5034425;28;45434;-79
2022/03/07 13:39:37;;;;;;;;;27.75;26.25;;;;;;;;5033833;28;45268;-80
2022/03/07 13:42:07;;;;;;;;;33.75;31.25;;;;;;;;5033983;28;46924;-79
2022/03/07 13:44:33;;;;;;;;;34.50;29.50;;;;;;;;5034787;28;45290;-80
2022/03/07 13:47:03;;;;;;;;;24.50;22.00;;;;;;;;5037365;28;45280;-79
2022/03/07 13:50:04;;;;;;;;;35.25;30.50;;;;;;;;5017439;28;45360;-79
2022/03/07 13:52:31;;;;;;;;;31.25;27.75;;;;;;;;4973272;28;46959;-78
2022/03/07 13:54:58;;;;;;;;;33.50;29.50;;;;;;;;4973787;28;45449;-79
2022/03/07 13:57:28;;;;;;;;;32.00;29.50;;;;;;;;4974572;28;45408;-78
2022/03/07 13:59:54;;;;;;;;;29.25;26.25;;;;;;;;4974071;28;45560;-79
2022/03/07 14:02:20;;;;;;;;;29.75;27.50;;;;;;;;4973956;28;45534;-79
2022/03/07 14:04:56;;;;;;;;;32.75;30.50;;;;;;;;4973877;28;45438;-80
2022/03/07 14:07:22;;;;;;;;;25.75;24.00;;;;;;;;4973427;28;45415;-79
2022/03/07 14:09:56;;;;;;;;;32.50;31.25;;;;;;;;4973851;28;45219;-80